Terminal Aerodrome Forecast
Issued by NWS Atlanta, GA

Home | Current Version | Previous Version | Text Only | Print | Product List | Glossary On
Versions: 1 2 3 4 5 6 7 8 9 10 11 12 13 14 15 16 17 18
000
FTUS42 KFFC 011734
TAFCSG
TAF
KCSG 011734Z 0118/0218 30005KT P6SM SCT040
     FM012100 27004KT P6SM SKC
     FM020500 VRB03KT P6SM SKC
     FM020600 09003KT 5SM BR BKN012
     FM020900 10004KT 3SM BR OVC007
     FM021300 12005KT 4SM BR OVC012
     FM021500 14006KT 6SM BR BKN025
     FM021700 16007KT P6SM SCT040=

USA.gov is the U.S. government's official web portal to all federal, state and local government web resources and services.